Rothschild, Wisconsin
Current Conditions -  °F | °C
As of 10:54 AM on Monday 22 Dec 2014 (Local Time) from KAUW Reporting Station
Haze Haze  
Wind Chill: -4°   Ceiling: 700
Heat Index:   Visibility: 3mi
Dew Point: -1°   Wind: 9mph
Humidity: 92%   Direction: 130°SE
Pressure: 29.79"   Gusts: NA
Location:  44.89°N, 89.62°W
Report Text: KAUW 221654Z AUTO 13008KT 3SM BR OVC007 01/M01 A2979 RMK AO2 SLP103 T00061006
Loading
Personal Weather Stations






























Interactive Weather Map New forecast layout! Learn more

10-Day Weather Forecast

Advertisements
Track Severe Weather on mobile